createdAt,value
2023-05-21T00:00:16.901Z,325.00
2023-05-21T00:01:16.955Z,326.00
2023-05-21T00:02:16.960Z,326.00
2023-05-21T00:03:17.052Z,326.00
2023-05-21T00:04:17.076Z,323.00
2023-05-21T00:05:17.095Z,323.00
2023-05-21T00:06:17.184Z,321.00
2023-05-21T00:07:17.197Z,322.00
2023-05-21T00:08:17.213Z,322.00
2023-05-21T00:09:17.263Z,321.00
2023-05-21T00:10:17.268Z,323.00
2023-05-21T00:11:17.318Z,322.00
2023-05-21T00:12:17.349Z,323.00
2023-05-21T00:13:17.400Z,324.00
2023-05-21T00:14:17.461Z,324.00
2023-05-21T00:15:17.485Z,327.00
2023-05-21T00:16:17.525Z,330.00
2023-05-21T00:17:17.622Z,332.00
2023-05-21T00:18:17.636Z,331.00
2023-05-21T00:19:17.761Z,331.00
2023-05-21T00:20:18.744Z,331.00
2023-05-21T00:21:17.809Z,330.00
2023-05-21T00:22:17.804Z,331.00
2023-05-21T00:23:17.853Z,333.00
2023-05-21T00:24:17.922Z,333.00
2023-05-21T00:25:17.997Z,332.00
2023-05-21T00:26:18.061Z,333.00
2023-05-21T00:27:18.103Z,332.00
2023-05-21T00:28:18.107Z,334.00
2023-05-21T00:29:18.168Z,335.00
2023-05-21T00:30:18.183Z,336.00
2023-05-21T00:31:18.267Z,335.00
2023-05-21T00:32:18.282Z,334.00
2023-05-21T00:33:18.354Z,335.00
2023-05-21T00:34:18.366Z,333.00
2023-05-21T00:35:18.412Z,331.00
2023-05-21T00:36:18.468Z,332.00
2023-05-21T00:37:18.574Z,329.00
2023-05-21T00:38:18.625Z,328.00
2023-05-21T00:39:18.641Z,328.00
2023-05-21T00:40:18.650Z,328.00
2023-05-21T00:41:18.812Z,328.00
2023-05-21T00:42:18.771Z,326.00
2023-05-21T00:43:18.794Z,327.00
2023-05-21T00:44:18.821Z,328.00
2023-05-21T00:45:18.879Z,327.00
2023-05-21T00:46:18.977Z,326.00
2023-05-21T00:47:19.041Z,325.00
2023-05-21T00:48:19.056Z,325.00
2023-05-21T00:49:19.214Z,324.00
2023-05-21T00:50:19.118Z,326.00
2023-05-21T00:51:19.179Z,326.00
2023-05-21T00:52:19.241Z,327.00
2023-05-21T00:53:19.304Z,327.00
2023-05-21T00:54:19.360Z,327.00
2023-05-21T00:55:19.346Z,327.00
2023-05-21T00:56:19.417Z,331.00
2023-05-21T00:57:19.475Z,332.00
2023-05-21T00:58:19.534Z,332.00
2023-05-21T00:59:19.591Z,331.00
2023-05-21T01:00:19.603Z,331.00
2023-05-21T01:01:19.714Z,331.00
2023-05-21T01:02:19.745Z,328.00
2023-05-21T01:03:19.857Z,328.00
2023-05-21T01:04:19.798Z,328.00
2023-05-21T01:05:19.848Z,331.00
2023-05-21T01:06:19.894Z,332.00
2023-05-21T01:07:19.970Z,329.00
2023-05-21T01:08:19.964Z,328.00
2023-05-21T01:09:20.724Z,329.00
2023-05-21T01:10:20.085Z,330.00
2023-05-21T01:11:20.143Z,331.00
2023-05-21T01:12:20.186Z,331.00
2023-05-21T01:13:20.260Z,331.00
2023-05-21T01:14:20.312Z,331.00
2023-05-21T01:15:20.311Z,329.00
2023-05-21T01:16:20.482Z,328.00
2023-05-21T01:17:20.475Z,329.00
2023-05-21T01:18:20.496Z,330.00
2023-05-21T01:19:20.578Z,328.00
2023-05-21T01:20:20.606Z,330.00
2023-05-21T01:21:20.670Z,328.00
2023-05-21T01:22:20.662Z,327.00
2023-05-21T01:23:20.786Z,327.00
2023-05-21T01:24:20.867Z,328.00
2023-05-21T01:25:20.837Z,327.00
2023-05-21T01:26:20.908Z,325.00
2023-05-21T01:27:20.951Z,325.00
2023-05-21T01:28:21.017Z,324.00
2023-05-21T01:29:21.071Z,327.00
2023-05-21T01:30:21.085Z,328.00
2023-05-21T01:31:21.143Z,328.00
2023-05-21T01:32:21.253Z,329.00
2023-05-21T01:33:21.317Z,328.00
2023-05-21T01:34:21.314Z,326.00
2023-05-21T01:35:21.381Z,324.00
2023-05-21T01:36:21.430Z,324.00
2023-05-21T01:37:21.484Z,323.00
2023-05-21T01:38:21.542Z,324.00
2023-05-21T01:39:21.575Z,323.00
2023-05-21T01:40:21.701Z,322.00
2023-05-21T01:41:21.723Z,324.00
2023-05-21T01:42:21.738Z,325.00
2023-05-21T01:43:21.846Z,324.00
2023-05-21T01:44:21.849Z,323.00
2023-05-21T01:45:21.952Z,323.00
2023-05-21T01:46:22.088Z,323.00
2023-05-21T01:47:22.079Z,320.00
2023-05-21T01:48:22.087Z,319.00
2023-05-21T01:49:22.139Z,319.00
2023-05-21T01:50:22.205Z,319.00
2023-05-21T01:51:23.299Z,320.00
2023-05-21T01:52:22.315Z,321.00
2023-05-21T01:53:22.389Z,323.00
2023-05-21T01:54:22.433Z,323.00
2023-05-21T01:55:22.496Z,323.00
2023-05-21T01:56:22.549Z,322.00
2023-05-21T01:57:22.602Z,322.00
2023-05-21T01:58:22.666Z,320.00
2023-05-21T01:59:22.768Z,319.00
2023-05-21T02:00:22.786Z,317.00
2023-05-21T02:01:22.867Z,316.00
2023-05-21T02:02:22.891Z,317.00
2023-05-21T02:03:23.075Z,317.00
2023-05-21T02:04:23.018Z,320.00
2023-05-21T02:05:23.061Z,322.00
2023-05-21T02:06:23.124Z,324.00
2023-05-21T02:07:23.253Z,325.00
2023-05-21T02:08:23.299Z,325.00
2023-05-21T02:09:23.362Z,325.00
2023-05-21T02:10:23.421Z,327.00
2023-05-21T02:11:23.469Z,327.00
2023-05-21T02:12:23.529Z,329.00
2023-05-21T02:13:26.212Z,329.00
2023-05-21T02:14:23.541Z,328.00
2023-05-21T02:15:23.546Z,328.00
2023-05-21T02:16:23.568Z,326.00
2023-05-21T02:17:23.645Z,327.00
2023-05-21T02:18:23.521Z,329.00
2023-05-21T02:19:23.586Z,328.00
2023-05-21T02:20:23.542Z,329.00
2023-05-21T02:21:23.554Z,330.00
2023-05-21T02:22:23.496Z,326.00
2023-05-21T02:23:23.503Z,326.00
2023-05-21T02:24:23.491Z,324.00
2023-05-21T02:25:23.505Z,326.00
2023-05-21T02:26:23.485Z,326.00
2023-05-21T02:27:23.473Z,326.00
2023-05-21T02:28:23.495Z,325.00
2023-05-21T02:29:23.457Z,324.00
2023-05-21T02:30:23.461Z,325.00
2023-05-21T02:31:23.448Z,324.00
2023-05-21T02:32:23.500Z,324.00
2023-05-21T02:33:23.432Z,324.00
2023-05-21T02:34:23.533Z,324.00
2023-05-21T02:35:23.440Z,324.00
2023-05-21T02:36:23.797Z,325.00
2023-05-21T02:37:23.390Z,324.00
2023-05-21T02:38:23.437Z,323.00
2023-05-21T02:39:23.416Z,322.00
2023-05-21T02:40:23.418Z,323.00
2023-05-21T02:41:23.439Z,325.00
2023-05-21T02:42:23.377Z,327.00
2023-05-21T02:43:23.384Z,328.00
2023-05-21T02:44:23.393Z,327.00
2023-05-21T02:45:23.420Z,327.00
2023-05-21T02:46:23.479Z,327.00
2023-05-21T02:47:23.544Z,327.00
2023-05-21T02:48:23.563Z,325.00
2023-05-21T02:49:23.631Z,326.00
2023-05-21T02:50:23.681Z,327.00
2023-05-21T02:51:23.744Z,327.00
2023-05-21T02:52:23.822Z,329.00
2023-05-21T02:53:23.863Z,327.00
2023-05-21T02:54:23.924Z,325.00
2023-05-21T02:55:23.977Z,324.00
2023-05-21T02:56:24.082Z,323.00
2023-05-21T02:57:24.151Z,323.00
2023-05-21T02:58:24.201Z,326.00
2023-05-21T02:59:24.249Z,323.00
2023-05-21T03:00:24.307Z,321.00
2023-05-21T03:01:24.564Z,323.00
2023-05-21T03:02:24.585Z,322.00
2023-05-21T03:03:24.665Z,323.00
2023-05-21T03:04:24.601Z,323.00
2023-05-21T03:05:24.687Z,324.00
2023-05-21T03:06:24.667Z,325.00
2023-05-21T03:07:24.796Z,326.00
2023-05-21T03:08:24.839Z,328.00
2023-05-21T03:09:24.849Z,328.00
2023-05-21T03:10:24.933Z,329.00
2023-05-21T03:11:25.006Z,329.00
2023-05-21T03:12:25.061Z,327.00
2023-05-21T03:13:25.123Z,327.00
2023-05-21T03:14:25.180Z,327.00
2023-05-21T03:15:25.242Z,326.00
2023-05-21T03:16:25.295Z,324.00
2023-05-21T03:17:25.343Z,324.00
2023-05-21T03:18:25.363Z,324.00
2023-05-21T03:19:25.533Z,327.00
2023-05-21T03:20:25.614Z,326.00
2023-05-21T03:21:25.536Z,324.00
2023-05-21T03:22:25.635Z,323.00
2023-05-21T03:23:25.634Z,323.00
2023-05-21T03:24:25.752Z,322.00
2023-05-21T03:25:25.786Z,323.00
2023-05-21T03:26:25.824Z,324.00
2023-05-21T03:27:26.298Z,321.00
2023-05-21T03:28:26.498Z,320.00
2023-05-21T03:29:26.011Z,321.00
2023-05-21T03:30:26.064Z,321.00
2023-05-21T03:31:26.140Z,321.00
2023-05-21T03:32:26.268Z,321.00
2023-05-21T03:33:26.247Z,321.00
2023-05-21T03:34:26.296Z,321.00
2023-05-21T03:35:26.341Z,321.00
2023-05-21T03:36:26.426Z,319.00
2023-05-21T03:37:26.457Z,320.00
2023-05-21T03:38:26.531Z,321.00
2023-05-21T03:39:26.572Z,321.00
2023-05-21T03:40:26.643Z,320.00
2023-05-21T03:41:26.708Z,320.00
2023-05-21T03:42:26.761Z,321.00
2023-05-21T03:43:26.820Z,321.00
2023-05-21T03:44:26.884Z,319.00
2023-05-21T03:45:26.929Z,319.00
2023-05-21T03:46:27.076Z,320.00
2023-05-21T03:47:27.090Z,320.00
2023-05-21T03:48:27.107Z,321.00
2023-05-21T03:49:27.163Z,321.00
2023-05-21T03:50:27.253Z,321.00
2023-05-21T03:51:27.237Z,320.00
2023-05-21T03:52:27.298Z,321.00
2023-05-21T03:53:27.349Z,322.00
2023-05-21T03:54:27.393Z,322.00
2023-05-21T03:55:27.467Z,323.00
2023-05-21T03:56:27.518Z,320.00
2023-05-21T03:57:27.590Z,320.00
2023-05-21T03:58:27.630Z,319.00
2023-05-21T03:59:27.697Z,320.00
2023-05-21T04:00:27.736Z,321.00
2023-05-21T04:01:27.811Z,322.00
2023-05-21T04:02:27.860Z,323.00
2023-05-21T04:03:28.027Z,320.00
2023-05-21T04:04:28.083Z,321.00
2023-05-21T04:05:27.983Z,319.00
2023-05-21T04:06:28.053Z,320.00
2023-05-21T04:07:28.168Z,318.00
2023-05-21T04:08:28.171Z,317.00
2023-05-21T04:09:28.244Z,318.00
2023-05-21T04:10:28.225Z,323.00
2023-05-21T04:11:28.299Z,323.00
2023-05-21T04:12:28.330Z,321.00
2023-05-21T04:13:28.401Z,320.00
2023-05-21T04:14:28.415Z,319.00
2023-05-21T04:15:28.479Z,320.00
2023-05-21T04:16:28.649Z,317.00
2023-05-21T04:17:28.613Z,321.00
2023-05-21T04:18:28.675Z,323.00
2023-05-21T04:19:28.737Z,323.00
2023-05-21T04:20:28.761Z,324.00
2023-05-21T04:21:28.767Z,323.00
2023-05-21T04:22:28.824Z,322.00
2023-05-21T04:23:28.883Z,323.00
2023-05-21T04:24:28.926Z,321.00
2023-05-21T04:25:28.996Z,321.00
2023-05-21T04:26:29.044Z,320.00
2023-05-21T04:27:29.067Z,319.00
2023-05-21T04:28:29.119Z,319.00
2023-05-21T04:29:29.171Z,319.00
2023-05-21T04:30:29.238Z,317.00
2023-05-21T04:31:29.309Z,319.00
2023-05-21T04:32:29.383Z,318.00
2023-05-21T04:33:29.413Z,319.00
2023-05-21T04:34:29.485Z,319.00
2023-05-21T04:35:29.560Z,318.00
2023-05-21T04:36:29.592Z,318.00
2023-05-21T04:37:29.623Z,321.00
2023-05-21T04:38:29.701Z,320.00
2023-05-21T04:39:29.753Z,320.00
2023-05-21T04:40:29.822Z,320.00
2023-05-21T04:41:29.890Z,322.00
2023-05-21T04:42:29.948Z,323.00
2023-05-21T04:43:30.045Z,324.00
2023-05-21T04:44:30.067Z,326.00
2023-05-21T04:45:30.116Z,328.00
2023-05-21T04:46:30.303Z,327.00
2023-05-21T04:47:30.418Z,324.00
2023-05-21T04:48:30.285Z,323.00
2023-05-21T04:49:30.345Z,324.00
2023-05-21T04:50:30.399Z,325.00
2023-05-21T04:51:30.512Z,322.00
2023-05-21T04:52:30.514Z,323.00
2023-05-21T04:53:30.568Z,324.00
2023-05-21T04:54:30.661Z,325.00
2023-05-21T04:55:30.641Z,325.00
2023-05-21T04:56:30.748Z,324.00
2023-05-21T04:57:30.809Z,323.00
2023-05-21T04:58:30.794Z,324.00
2023-05-21T04:59:30.883Z,326.00
2023-05-21T05:00:30.938Z,328.00
2023-05-21T05:01:30.931Z,327.00
2023-05-21T05:02:31.012Z,327.00
2023-05-21T05:03:31.187Z,326.00
2023-05-21T05:04:31.069Z,326.00
2023-05-21T05:05:31.060Z,324.00
2023-05-21T05:06:31.137Z,325.00
2023-05-21T05:07:31.157Z,326.00
2023-05-21T05:08:31.172Z,327.00
2023-05-21T05:09:31.216Z,327.00
2023-05-21T05:10:31.259Z,328.00
2023-05-21T05:11:31.299Z,328.00
2023-05-21T05:12:31.320Z,329.00
2023-05-21T05:13:31.388Z,328.00
2023-05-21T05:14:31.382Z,327.00
2023-05-21T05:15:31.443Z,329.00
2023-05-21T05:16:31.548Z,329.00
2023-05-21T05:17:31.619Z,330.00
2023-05-21T05:18:31.546Z,332.00
2023-05-21T05:19:31.707Z,333.00
2023-05-21T05:20:31.684Z,333.00
2023-05-21T05:21:31.744Z,333.00
2023-05-21T05:22:31.757Z,332.00
2023-05-21T05:23:31.858Z,332.00
2023-05-21T05:24:31.920Z,332.00
2023-05-21T05:25:31.922Z,331.00
2023-05-21T05:26:31.991Z,329.00
2023-05-21T05:27:32.037Z,327.00
2023-05-21T05:28:32.087Z,329.00
2023-05-21T05:29:32.149Z,328.00
2023-05-21T05:30:32.422Z,327.00
2023-05-21T05:31:32.290Z,328.00
2023-05-21T05:32:32.325Z,327.00
2023-05-21T05:33:32.383Z,326.00
2023-05-21T05:34:32.464Z,326.00
2023-05-21T05:35:32.481Z,325.00
2023-05-21T05:36:32.521Z,325.00
2023-05-21T05:37:32.603Z,323.00
2023-05-21T05:38:32.877Z,324.00
2023-05-21T05:39:32.734Z,324.00
2023-05-21T05:40:32.805Z,326.00
2023-05-21T05:41:32.860Z,326.00
2023-05-21T05:42:32.929Z,327.00
2023-05-21T05:43:32.925Z,326.00
2023-05-21T05:44:32.982Z,325.00
2023-05-21T05:45:33.069Z,321.00
2023-05-21T05:46:33.125Z,321.00
2023-05-21T05:47:33.179Z,321.00
2023-05-21T05:48:33.197Z,321.00
2023-05-21T05:49:33.273Z,322.00
2023-05-21T05:50:33.313Z,322.00
2023-05-21T05:51:33.387Z,322.00
2023-05-21T05:52:33.433Z,321.00
2023-05-21T05:53:33.462Z,320.00
2023-05-21T05:54:33.557Z,321.00
2023-05-21T05:55:33.616Z,321.00
2023-05-21T05:56:33.853Z,321.00
2023-05-21T05:57:33.663Z,322.00
2023-05-21T05:58:33.762Z,321.00
2023-05-21T05:59:33.806Z,322.00
2023-05-21T06:00:33.882Z,322.00
2023-05-21T06:01:33.882Z,322.00
2023-05-21T06:02:34.003Z,322.00
2023-05-21T06:03:34.071Z,321.00
2023-05-21T06:04:34.019Z,320.00
2023-05-21T06:05:34.192Z,319.00
2023-05-21T06:06:34.101Z,316.00
2023-05-21T06:07:34.132Z,317.00
2023-05-21T06:08:36.133Z,318.00
2023-05-21T06:09:34.237Z,319.00
2023-05-21T06:10:34.155Z,320.00
2023-05-21T06:11:34.187Z,320.00
2023-05-21T06:12:34.157Z,320.00
2023-05-21T06:13:34.155Z,318.00
2023-05-21T06:14:34.154Z,317.00
2023-05-21T06:15:34.167Z,319.00
2023-05-21T06:16:34.284Z,318.00
2023-05-21T06:17:34.139Z,316.00
2023-05-21T06:18:34.123Z,316.00
2023-05-21T06:19:34.268Z,315.00
2023-05-21T06:20:34.084Z,316.00
2023-05-21T06:21:34.105Z,320.00
2023-05-21T06:22:34.083Z,321.00
2023-05-21T06:23:34.156Z,321.00
2023-05-21T06:24:34.061Z,320.00
2023-05-21T06:25:34.170Z,320.00
2023-05-21T06:26:34.082Z,319.00
2023-05-21T06:27:34.137Z,319.00
2023-05-21T06:28:34.086Z,318.00
2023-05-21T06:29:34.073Z,319.00
2023-05-21T06:30:34.046Z,317.00
2023-05-21T06:31:33.984Z,318.00
2023-05-21T06:32:34.179Z,319.00
2023-05-21T06:33:34.245Z,320.00
2023-05-21T06:34:34.092Z,317.00
2023-05-21T06:35:34.132Z,318.00
2023-05-21T06:36:33.995Z,318.00
2023-05-21T06:37:34.027Z,319.00
2023-05-21T06:38:34.153Z,319.00
2023-05-21T06:39:33.980Z,320.00
2023-05-21T06:40:33.969Z,318.00
2023-05-21T06:41:33.970Z,317.00
2023-05-21T06:42:34.065Z,319.00
2023-05-21T06:43:34.073Z,320.00
2023-05-21T06:44:34.155Z,323.00
2023-05-21T06:45:34.148Z,324.00
2023-05-21T06:46:34.195Z,325.00
2023-05-21T06:47:34.227Z,324.00
2023-05-21T06:48:34.235Z,322.00
2023-05-21T06:49:34.257Z,319.00
2023-05-21T06:50:34.324Z,316.00
2023-05-21T06:51:34.347Z,315.00
2023-05-21T06:52:34.441Z,315.00
2023-05-21T06:53:34.422Z,316.00
2023-05-21T06:54:34.471Z,318.00
2023-05-21T06:55:35.037Z,318.00
2023-05-21T06:56:34.536Z,318.00
2023-05-21T06:57:34.584Z,317.00
2023-05-21T06:58:34.650Z,317.00
2023-05-21T06:59:34.693Z,317.00
2023-05-21T07:00:34.734Z,320.00
2023-05-21T07:01:34.829Z,322.00
2023-05-21T07:02:34.860Z,324.00
2023-05-21T07:03:34.856Z,323.00
2023-05-21T07:04:34.859Z,323.00
2023-05-21T07:05:35.193Z,322.00
2023-05-21T07:06:34.961Z,323.00
2023-05-21T07:07:34.952Z,325.00
2023-05-21T07:08:34.951Z,326.00
2023-05-21T07:09:34.979Z,328.00
2023-05-21T07:10:35.074Z,327.00
2023-05-21T07:11:35.119Z,326.00
2023-05-21T07:12:35.128Z,325.00
2023-05-21T07:13:35.107Z,323.00
2023-05-21T07:14:35.131Z,324.00
2023-05-21T07:15:35.434Z,322.00
2023-05-21T07:16:35.216Z,323.00
2023-05-21T07:17:35.295Z,321.00
2023-05-21T07:18:35.215Z,321.00
2023-05-21T07:19:35.348Z,321.00
2023-05-21T07:20:35.273Z,321.00
2023-05-21T07:21:35.334Z,322.00
2023-05-21T07:22:35.332Z,326.00
2023-05-21T07:23:35.467Z,324.00
2023-05-21T07:24:35.372Z,323.00
2023-05-21T07:25:35.663Z,324.00
2023-05-21T07:26:35.429Z,323.00
2023-05-21T07:27:35.461Z,322.00
2023-05-21T07:28:35.586Z,323.00
2023-05-21T07:29:35.481Z,324.00
2023-05-21T07:30:35.517Z,323.00
2023-05-21T07:31:35.604Z,322.00
2023-05-21T07:32:35.577Z,322.00
2023-05-21T07:33:35.608Z,322.00
2023-05-21T07:34:35.618Z,320.00
2023-05-21T07:35:35.746Z,323.00
2023-05-21T07:36:35.673Z,321.00
2023-05-21T07:37:35.639Z,323.00
2023-05-21T07:38:35.679Z,323.00
2023-05-21T07:39:35.656Z,322.00
2023-05-21T07:40:35.678Z,320.00
2023-05-21T07:41:35.708Z,319.00
2023-05-21T07:42:35.697Z,320.00
2023-05-21T07:43:35.815Z,320.00
2023-05-21T07:44:35.840Z,319.00
2023-05-21T07:45:36.096Z,319.00
2023-05-21T07:46:36.029Z,319.00
2023-05-21T07:47:36.060Z,318.00
2023-05-21T07:48:35.968Z,319.00
2023-05-21T07:49:35.964Z,319.00
2023-05-21T07:50:35.986Z,319.00
2023-05-21T07:51:36.038Z,320.00
2023-05-21T07:52:36.599Z,322.00
2023-05-21T07:53:36.056Z,323.00
2023-05-21T07:54:36.120Z,323.00
2023-05-21T07:55:36.280Z,322.00
2023-05-21T07:56:36.133Z,321.00
2023-05-21T07:57:36.220Z,323.00
2023-05-21T07:58:36.320Z,322.00
2023-05-21T07:59:36.311Z,323.00
2023-05-21T08:00:37.215Z,325.00
2023-05-21T08:01:36.393Z,325.00
2023-05-21T08:02:36.418Z,324.00
2023-05-21T08:03:36.502Z,325.00
2023-05-21T08:04:38.627Z,326.00
2023-05-21T08:05:36.507Z,326.00
2023-05-21T08:06:36.357Z,326.00
2023-05-21T08:07:36.370Z,323.00
2023-05-21T08:08:36.321Z,323.00
2023-05-21T08:09:36.326Z,322.00
2023-05-21T08:10:36.313Z,322.00
2023-05-21T08:11:36.285Z,322.00
2023-05-21T08:12:36.333Z,321.00
2023-05-21T08:13:36.260Z,320.00
2023-05-21T08:14:36.269Z,318.00
2023-05-21T08:15:36.428Z,316.00
2023-05-21T08:16:36.270Z,317.00
2023-05-21T08:17:36.398Z,317.00
2023-05-21T08:18:36.225Z,319.00
2023-05-21T08:19:36.315Z,320.00
2023-05-21T08:20:36.280Z,318.00
2023-05-21T08:21:36.240Z,319.00
2023-05-21T08:22:36.214Z,319.00
2023-05-21T08:23:36.189Z,320.00
2023-05-21T08:24:36.231Z,320.00
2023-05-21T08:25:36.435Z,320.00
2023-05-21T08:26:36.184Z,320.00
2023-05-21T08:27:36.223Z,322.00
2023-05-21T08:28:36.198Z,322.00
2023-05-21T08:29:36.227Z,322.00
2023-05-21T08:30:36.177Z,320.00
2023-05-21T08:31:36.214Z,320.00
2023-05-21T08:32:36.185Z,319.00
2023-05-21T08:33:36.155Z,319.00
2023-05-21T08:34:36.131Z,318.00
2023-05-21T08:35:36.367Z,317.00
2023-05-21T08:36:36.144Z,320.00
2023-05-21T08:37:36.142Z,320.00
2023-05-21T08:38:36.099Z,319.00
2023-05-21T08:39:36.109Z,320.00
2023-05-21T08:40:36.186Z,319.00
2023-05-21T08:41:36.108Z,321.00
2023-05-21T08:42:37.606Z,321.00
2023-05-21T08:43:36.169Z,321.00
2023-05-21T08:44:36.123Z,320.00
2023-05-21T08:45:36.253Z,320.00
2023-05-21T08:46:36.070Z,321.00
2023-05-21T08:47:36.136Z,322.00
2023-05-21T08:48:36.042Z,323.00
2023-05-21T08:49:36.161Z,323.00
2023-05-21T08:50:36.010Z,324.00
2023-05-21T08:51:36.421Z,322.00
2023-05-21T08:52:35.992Z,321.00
2023-05-21T08:53:35.994Z,320.00
2023-05-21T08:54:36.034Z,319.00
2023-05-21T08:55:36.133Z,318.00
2023-05-21T08:56:36.027Z,318.00
2023-05-21T08:57:36.010Z,316.00
2023-05-21T08:58:36.001Z,317.00
2023-05-21T08:59:35.993Z,316.00
2023-05-21T09:00:35.973Z,317.00
2023-05-21T09:01:36.055Z,317.00
2023-05-21T09:02:36.000Z,317.00
2023-05-21T09:03:36.089Z,317.00
2023-05-21T09:04:36.287Z,316.00
2023-05-21T09:05:36.345Z,318.00
2023-05-21T09:06:36.170Z,317.00
2023-05-21T09:07:36.165Z,315.00
2023-05-21T09:08:36.196Z,315.00
2023-05-21T09:09:36.205Z,316.00
2023-05-21T09:10:36.142Z,316.00
2023-05-21T09:11:36.128Z,315.00
2023-05-21T09:12:36.159Z,316.00
2023-05-21T09:13:38.263Z,317.00
2023-05-21T09:14:36.239Z,316.00
2023-05-21T09:15:36.473Z,315.00
2023-05-21T09:16:36.232Z,314.00
2023-05-21T09:17:36.206Z,313.00
2023-05-21T09:18:36.187Z,316.00
2023-05-21T09:19:36.224Z,315.00
2023-05-21T09:20:36.170Z,312.00
2023-05-21T09:21:36.196Z,314.00
2023-05-21T09:22:36.171Z,315.00
2023-05-21T09:23:36.125Z,318.00
2023-05-21T09:24:36.607Z,319.00
2023-05-21T09:25:36.242Z,317.00
2023-05-21T09:26:36.118Z,317.00
2023-05-21T09:27:36.220Z,316.00
2023-05-21T09:28:36.128Z,315.00
2023-05-21T09:29:36.132Z,314.00
2023-05-21T09:30:36.532Z,315.00
2023-05-21T09:31:36.326Z,314.00
2023-05-21T09:32:36.101Z,312.00
2023-05-21T09:33:36.110Z,311.00
2023-05-21T09:34:36.106Z,311.00
2023-05-21T09:35:37.498Z,312.00
2023-05-21T09:36:36.178Z,314.00
2023-05-21T09:37:36.080Z,313.00
2023-05-21T09:38:36.030Z,313.00
2023-05-21T09:39:36.035Z,315.00
2023-05-21T09:40:36.250Z,312.00
2023-05-21T09:41:36.245Z,310.00
2023-05-21T09:42:36.069Z,309.00
2023-05-21T09:43:36.023Z,308.00
2023-05-21T09:44:36.021Z,308.00
2023-05-21T09:45:36.201Z,309.00
2023-05-21T09:46:36.091Z,310.00
2023-05-21T09:47:36.001Z,311.00
2023-05-21T09:48:36.000Z,311.00
2023-05-21T09:49:35.989Z,312.00
2023-05-21T09:50:36.211Z,312.00
2023-05-21T09:51:36.069Z,311.00
2023-05-21T09:52:36.100Z,308.00
2023-05-21T09:53:36.188Z,307.00
2023-05-21T09:54:36.284Z,307.00
2023-05-21T09:55:36.308Z,305.00
2023-05-21T09:56:36.348Z,307.00
2023-05-21T09:57:36.408Z,309.00
2023-05-21T09:58:36.433Z,312.00
2023-05-21T09:59:36.469Z,311.00
2023-05-21T10:00:37.545Z,309.00
2023-05-21T10:01:36.608Z,309.00
2023-05-21T10:02:36.698Z,309.00
2023-05-21T10:03:36.658Z,309.00
2023-05-21T10:04:36.892Z,310.00
2023-05-21T10:05:36.909Z,307.00
2023-05-21T10:06:37.116Z,307.00
2023-05-21T10:07:37.232Z,308.00
2023-05-21T10:08:37.427Z,307.00
2023-05-21T10:09:37.578Z,306.00
2023-05-21T10:10:38.001Z,307.00
2023-05-21T10:11:37.884Z,306.00
2023-05-21T10:12:38.072Z,308.00
2023-05-21T10:13:38.158Z,311.00
2023-05-21T10:14:38.313Z,312.00
2023-05-21T10:15:38.486Z,311.00
2023-05-21T10:16:38.658Z,310.00
2023-05-21T10:17:38.863Z,309.00
2023-05-21T10:18:38.909Z,309.00
2023-05-21T10:19:39.063Z,312.00
2023-05-21T10:20:39.385Z,313.00
2023-05-21T10:21:39.345Z,310.00
2023-05-21T10:22:39.555Z,311.00
2023-05-21T10:23:39.573Z,312.00
2023-05-21T10:24:39.818Z,313.00
2023-05-21T10:25:39.918Z,312.00
2023-05-21T10:26:40.090Z,312.00
2023-05-21T10:27:40.204Z,312.00
2023-05-21T10:28:40.355Z,313.00
2023-05-21T10:29:40.544Z,315.00
2023-05-21T10:30:40.678Z,317.00
2023-05-21T10:31:40.779Z,316.00
2023-05-21T10:32:40.978Z,315.00
2023-05-21T10:33:40.985Z,312.00
2023-05-21T10:34:41.186Z,314.00
2023-05-21T10:35:41.286Z,314.00
2023-05-21T10:36:41.385Z,314.00
2023-05-21T10:37:41.534Z,313.00
2023-05-21T10:38:41.716Z,313.00
2023-05-21T10:39:41.857Z,312.00
2023-05-21T10:40:42.039Z,312.00
2023-05-21T10:41:42.148Z,314.00
2023-05-21T10:42:42.297Z,313.00
2023-05-21T10:43:42.485Z,312.00
2023-05-21T10:44:42.582Z,310.00
2023-05-21T10:45:42.759Z,311.00
2023-05-21T10:46:42.870Z,310.00
2023-05-21T10:47:42.997Z,308.00
2023-05-21T10:48:43.125Z,309.00
2023-05-21T10:49:43.206Z,309.00
2023-05-21T10:50:43.334Z,309.00
2023-05-21T10:51:43.496Z,307.00
2023-05-21T10:52:43.641Z,308.00
2023-05-21T10:53:43.767Z,308.00
2023-05-21T10:54:43.928Z,310.00
2023-05-21T10:55:44.025Z,312.00
2023-05-21T10:56:44.198Z,312.00
2023-05-21T10:57:44.301Z,312.00
2023-05-21T10:58:44.407Z,311.00
2023-05-21T10:59:44.558Z,314.00
2023-05-21T11:00:44.671Z,315.00
2023-05-21T11:01:44.877Z,312.00
2023-05-21T11:02:45.049Z,310.00
2023-05-21T11:03:45.221Z,309.00
2023-05-21T11:04:45.220Z,308.00
2023-05-21T11:05:45.386Z,308.00
2023-05-21T11:06:45.484Z,308.00
2023-05-21T11:07:45.610Z,308.00
2023-05-21T11:08:45.760Z,305.00
2023-05-21T11:09:45.923Z,303.00
2023-05-21T11:10:46.037Z,303.00
2023-05-21T11:11:46.251Z,303.00
2023-05-21T11:12:46.285Z,304.00
2023-05-21T11:13:46.411Z,303.00
2023-05-21T11:14:46.498Z,305.00
2023-05-21T11:15:46.691Z,306.00
2023-05-21T11:16:47.566Z,307.00
2023-05-21T11:17:46.859Z,308.00
2023-05-21T11:18:46.967Z,309.00
2023-05-21T11:19:46.961Z,308.00
2023-05-21T11:20:47.022Z,309.00
2023-05-21T11:21:47.068Z,309.00
2023-05-21T11:22:47.134Z,309.00
2023-05-21T11:23:47.178Z,309.00
2023-05-21T11:24:48.842Z,309.00
2023-05-21T11:25:47.176Z,310.00
2023-05-21T11:26:47.216Z,310.00
2023-05-21T11:27:47.216Z,310.00
2023-05-21T11:28:47.212Z,308.00
2023-05-21T11:29:47.142Z,306.00
2023-05-21T11:30:47.225Z,305.00
2023-05-21T11:31:47.258Z,306.00
2023-05-21T11:32:47.228Z,308.00
2023-05-21T11:33:47.154Z,307.00
2023-05-21T11:34:47.191Z,310.00
2023-05-21T11:35:47.158Z,311.00
2023-05-21T11:36:47.129Z,312.00
2023-05-21T11:37:47.145Z,314.00
2023-05-21T11:38:47.094Z,313.00
2023-05-21T11:39:47.151Z,314.00
2023-05-21T11:40:47.075Z,314.00
2023-05-21T11:41:47.192Z,314.00
2023-05-21T11:42:47.111Z,315.00
2023-05-21T11:43:47.071Z,317.00
2023-05-21T11:44:47.086Z,318.00
2023-05-21T11:45:47.118Z,320.00
2023-05-21T11:46:47.143Z,318.00
2023-05-21T11:47:47.163Z,318.00
2023-05-21T11:48:47.041Z,320.00
2023-05-21T11:49:47.085Z,319.00
2023-05-21T11:50:47.053Z,319.00
2023-05-21T11:51:47.073Z,320.00
2023-05-21T11:52:47.337Z,318.00
2023-05-21T11:53:47.050Z,318.00
2023-05-21T11:54:47.061Z,319.00
2023-05-21T11:55:47.089Z,319.00
2023-05-21T11:56:46.992Z,317.00
2023-05-21T11:57:47.068Z,317.00
2023-05-21T11:58:47.033Z,314.00
2023-05-21T11:59:47.032Z,313.00
2023-05-21T12:00:46.987Z,313.00
2023-05-21T12:01:46.992Z,311.00
2023-05-21T12:02:47.100Z,309.00
2023-05-21T12:03:47.130Z,308.00
2023-05-21T12:04:46.974Z,307.00
2023-05-21T12:05:47.065Z,311.00
2023-05-21T12:06:47.031Z,316.00
2023-05-21T12:07:47.069Z,318.00
2023-05-21T12:08:47.094Z,317.00
2023-05-21T12:09:47.156Z,314.00
2023-05-21T12:10:47.202Z,310.00
2023-05-21T12:11:47.268Z,307.00
2023-05-21T12:12:55.426Z,307.00
2023-05-21T12:13:48.339Z,308.00
2023-05-21T12:14:47.236Z,310.00
2023-05-21T12:15:47.304Z,308.00
2023-05-21T12:16:47.287Z,308.00
2023-05-21T12:17:47.262Z,306.00
2023-05-21T12:18:47.238Z,308.00
2023-05-21T12:19:47.225Z,308.00
2023-05-21T12:20:47.224Z,306.00
2023-05-21T12:21:47.230Z,307.00
2023-05-21T12:22:47.244Z,308.00
2023-05-21T12:23:47.202Z,308.00
2023-05-21T12:24:47.183Z,310.00
2023-05-21T12:25:47.262Z,311.00
2023-05-21T12:26:47.257Z,311.00
2023-05-21T12:27:47.269Z,312.00
2023-05-21T12:28:47.323Z,314.00